createdAt,value
2022-08-22T00:01:36.112Z,19.10
2022-08-22T00:03:01.119Z,20.10
2022-08-22T00:03:01.923Z,20.10
2022-08-22T00:03:16.334Z,19.20
2022-08-22T00:04:18.000Z,19.10
2022-08-22T00:07:08.398Z,19.10
2022-08-22T00:09:35.164Z,19.10
2022-08-22T00:12:20.341Z,19.10
2022-08-22T00:15:42.499Z,19.10
2022-08-22T00:18:20.499Z,19.10
2022-08-22T00:21:27.805Z,19.00
2022-08-22T00:24:09.665Z,19.00
2022-08-22T00:26:54.334Z,19.00
2022-08-22T00:29:40.292Z,19.00
2022-08-22T00:32:25.419Z,19.00
2022-08-22T00:35:19.721Z,18.90
2022-08-22T00:38:06.801Z,18.90
2022-08-22T00:41:07.292Z,18.90
2022-08-22T00:44:06.962Z,18.90
2022-08-22T00:47:10.130Z,18.80
2022-08-22T00:49:57.480Z,18.80
2022-08-22T00:52:50.677Z,18.80
2022-08-22T00:55:28.072Z,18.70
2022-08-22T01:03:05.396Z,18.70
2022-08-22T01:05:37.897Z,18.70
2022-08-22T01:08:48.638Z,18.70
2022-08-22T01:11:36.744Z,18.70
2022-08-22T01:14:40.768Z,18.70
2022-08-22T01:17:46.164Z,18.60
2022-08-22T01:21:01.836Z,18.60
2022-08-22T01:23:58.807Z,18.60
2022-08-22T01:27:13.087Z,18.50
2022-08-22T01:30:13.045Z,18.50
2022-08-22T01:32:42.690Z,18.50
2022-08-22T01:35:32.775Z,18.50
2022-08-22T01:38:19.477Z,18.50
2022-08-22T01:41:04.259Z,18.50
2022-08-22T01:44:00.358Z,18.40
2022-08-22T01:46:42.351Z,18.40
2022-08-22T01:49:21.424Z,18.40
2022-08-22T01:51:56.607Z,18.40
2022-08-22T01:54:50.837Z,18.30
2022-08-22T01:57:19.160Z,18.40
2022-08-22T01:59:54.542Z,18.40
2022-08-22T02:02:27.502Z,18.30
2022-08-22T02:05:18.963Z,18.30
2022-08-22T02:07:51.797Z,18.30
2022-08-22T02:10:49.038Z,18.30
2022-08-22T02:13:54.239Z,18.30
2022-08-22T02:16:40.744Z,18.30
2022-08-22T02:19:16.417Z,18.20
2022-08-22T02:21:43.185Z,18.20
2022-08-22T02:24:47.268Z,18.20
2022-08-22T02:27:48.608Z,18.20
2022-08-22T02:30:25.535Z,18.20
2022-08-22T02:33:07.578Z,18.20
2022-08-22T02:35:49.275Z,18.10
2022-08-22T02:38:25.042Z,18.10
2022-08-22T02:41:16.455Z,18.10
2022-08-22T02:43:59.528Z,18.00
2022-08-22T02:46:42.129Z,18.00
2022-08-22T02:49:16.545Z,18.00
2022-08-22T02:51:43.296Z,18.00
2022-08-22T02:54:26.182Z,18.00
2022-08-22T02:57:04.734Z,18.00
2022-08-22T02:59:34.527Z,18.00
2022-08-22T03:02:36.883Z,18.00
2022-08-22T03:05:23.909Z,18.00
2022-08-22T03:07:56.827Z,18.00
2022-08-22T03:10:27.718Z,18.00
2022-08-22T03:13:17.032Z,18.00
2022-08-22T03:15:49.237Z,18.00
2022-08-22T03:18:27.714Z,18.00
2022-08-22T03:21:00.987Z,18.00
2022-08-22T03:23:27.694Z,17.90
2022-08-22T03:26:11.406Z,17.90
2022-08-22T03:28:59.551Z,17.90
2022-08-22T03:31:28.417Z,17.90
2022-08-22T03:34:21.308Z,17.90
2022-08-22T03:37:05.570Z,17.90
2022-08-22T03:39:42.064Z,17.90
2022-08-22T03:42:23.439Z,17.90
2022-08-22T03:45:06.989Z,17.90
2022-08-22T03:47:36.821Z,17.90
2022-08-22T03:50:03.511Z,17.90
2022-08-22T03:53:18.740Z,17.90
2022-08-22T03:56:09.847Z,17.90
2022-08-22T03:58:39.055Z,17.90
2022-08-22T04:01:24.665Z,17.90
2022-08-22T04:04:21.608Z,17.90
2022-08-22T04:07:28.446Z,18.00
2022-08-22T04:10:17.908Z,17.90
2022-08-22T04:12:44.620Z,17.90
2022-08-22T04:15:31.152Z,17.90
2022-08-22T04:18:23.122Z,17.90
2022-08-22T04:20:50.417Z,17.90
2022-08-22T04:23:43.766Z,17.90
2022-08-22T04:26:21.528Z,17.90
2022-08-22T04:29:01.298Z,17.90
2022-08-22T04:31:33.595Z,17.90
2022-08-22T04:34:10.748Z,17.90
2022-08-22T04:37:10.261Z,17.90
2022-08-22T04:39:53.713Z,17.90
2022-08-22T04:42:33.126Z,17.90
2022-08-22T04:45:03.053Z,18.00
2022-08-22T04:47:38.219Z,17.90
2022-08-22T04:50:43.013Z,18.00
2022-08-22T04:53:13.786Z,18.00
2022-08-22T04:55:58.645Z,18.00
2022-08-22T04:59:01.347Z,18.00
2022-08-22T05:02:11.153Z,18.00
2022-08-22T05:04:43.641Z,18.00
2022-08-22T05:07:18.266Z,18.00
2022-08-22T05:09:58.711Z,18.00
2022-08-22T05:12:43.345Z,18.00
2022-08-22T05:15:24.011Z,18.00
2022-08-22T05:17:55.792Z,18.10
2022-08-22T05:20:26.023Z,18.10
2022-08-22T05:23:00.134Z,18.10
2022-08-22T05:25:36.321Z,18.10
2022-08-22T05:28:28.736Z,18.10
2022-08-22T05:30:57.082Z,18.20
2022-08-22T05:33:32.263Z,18.20
2022-08-22T05:36:13.392Z,18.20
2022-08-22T05:38:50.395Z,18.30
2022-08-22T05:41:23.705Z,18.30
2022-08-22T05:43:54.883Z,18.30
2022-08-22T05:46:27.901Z,18.30
2022-08-22T05:49:02.402Z,18.40
2022-08-22T05:51:43.624Z,18.40
2022-08-22T05:54:21.490Z,18.50
2022-08-22T05:57:22.646Z,18.50
2022-08-22T06:00:07.563Z,18.60
2022-08-22T06:03:00.062Z,18.60
2022-08-22T06:05:30.591Z,18.60
2022-08-22T06:08:23.383Z,18.70
2022-08-22T06:10:55.006Z,18.80
2022-08-22T06:13:34.853Z,18.80
2022-08-22T06:16:14.112Z,18.80
2022-08-22T06:18:43.380Z,18.90
2022-08-22T06:21:20.729Z,18.90
2022-08-22T06:23:57.919Z,18.90
2022-08-22T06:26:31.075Z,19.00
2022-08-22T06:29:01.780Z,19.00
2022-08-22T06:31:38.003Z,19.10
2022-08-22T06:34:08.409Z,19.10
2022-08-22T06:36:39.397Z,19.20
2022-08-22T06:39:06.180Z,19.20
2022-08-22T06:41:39.711Z,19.30
2022-08-22T06:44:19.933Z,19.30
2022-08-22T06:46:52.285Z,19.40
2022-08-22T06:49:22.019Z,19.40
2022-08-22T06:51:49.966Z,19.40
2022-08-22T06:54:23.851Z,19.50
2022-08-22T06:56:53.044Z,19.50
2022-08-22T06:59:25.932Z,19.60
2022-08-22T07:02:04.266Z,19.60
2022-08-22T07:04:33.781Z,19.60
2022-08-22T07:07:03.718Z,19.70
2022-08-22T07:09:40.300Z,19.80
2022-08-22T07:12:18.901Z,19.80
2022-08-22T07:14:53.133Z,19.90
2022-08-22T07:17:32.708Z,19.90
2022-08-22T07:20:06.559Z,20.00
2022-08-22T07:22:36.587Z,20.10
2022-08-22T07:25:09.300Z,20.10
2022-08-22T07:28:07.454Z,20.20
2022-08-22T07:31:08.547Z,20.20
2022-08-22T07:33:39.269Z,20.30
2022-08-22T07:36:32.236Z,20.30
2022-08-22T07:39:32.812Z,20.40
2022-08-22T07:42:28.539Z,20.40
2022-08-22T07:45:06.277Z,20.40
2022-08-22T07:48:03.388Z,20.40
2022-08-22T07:50:53.504Z,20.50
2022-08-22T07:53:40.038Z,20.60
2022-08-22T07:56:37.424Z,20.70
2022-08-22T07:59:12.825Z,20.80
2022-08-22T08:01:48.366Z,20.90
2022-08-22T08:04:20.703Z,21.00
2022-08-22T08:06:52.790Z,21.10
2022-08-22T08:09:20.293Z,21.20
2022-08-22T08:11:53.855Z,21.40
2022-08-22T08:14:25.887Z,21.50
2022-08-22T08:17:18.062Z,21.70
2022-08-22T08:19:50.615Z,21.90
2022-08-22T08:22:23.583Z,22.00
2022-08-22T08:24:51.689Z,22.20
2022-08-22T08:27:41.768Z,22.40
2022-08-22T08:30:17.079Z,22.60
2022-08-22T08:32:49.457Z,22.90
2022-08-22T08:35:23.780Z,23.10
2022-08-22T08:37:57.867Z,23.30
2022-08-22T08:40:56.921Z,23.40
2022-08-22T08:44:03.626Z,23.50
2022-08-22T08:46:55.683Z,23.60
2022-08-22T08:49:43.414Z,23.70
2022-08-22T08:52:13.290Z,23.60
2022-08-22T08:55:02.680Z,23.60
2022-08-22T08:58:11.068Z,23.70
2022-08-22T09:00:46.363Z,23.60
2022-08-22T09:03:30.905Z,23.50
2022-08-22T09:06:08.565Z,23.50
2022-08-22T09:08:59.577Z,23.50
2022-08-22T09:11:54.456Z,23.60
2022-08-22T09:14:53.183Z,23.70
2022-08-22T09:17:48.046Z,23.80
2022-08-22T09:24:33.831Z,24.10
2022-08-22T09:27:24.485Z,24.10
2022-08-22T09:30:15.554Z,24.20
2022-08-22T09:33:20.660Z,24.40
2022-08-22T09:36:05.562Z,24.50
2022-08-22T09:38:47.990Z,24.60
2022-08-22T09:41:23.846Z,24.60
2022-08-22T09:44:12.687Z,24.60
2022-08-22T09:47:06.471Z,24.50
2022-08-22T09:49:51.573Z,24.30
2022-08-22T09:52:42.699Z,24.40
2022-08-22T09:55:35.954Z,24.40
2022-08-22T09:58:13.609Z,24.30
2022-08-22T10:00:55.773Z,24.40
2022-08-22T10:03:41.353Z,24.40
2022-08-22T10:06:24.802Z,24.50
2022-08-22T10:09:09.293Z,24.60
2022-08-22T10:11:49.564Z,24.60
2022-08-22T10:14:22.230Z,24.70
2022-08-22T10:17:05.321Z,24.80
2022-08-22T10:19:42.832Z,24.80
2022-08-22T10:22:31.081Z,24.70
2022-08-22T10:25:22.637Z,24.60
2022-08-22T10:28:14.826Z,24.60
2022-08-22T10:31:02.189Z,24.60
2022-08-22T10:33:41.459Z,24.60
2022-08-22T10:36:15.896Z,24.60
2022-08-22T10:39:01.391Z,24.60
2022-08-22T10:42:11.385Z,24.60
2022-08-22T10:44:50.256Z,24.60
2022-08-22T10:47:24.140Z,24.60
2022-08-22T10:49:56.682Z,24.50
2022-08-22T10:52:34.036Z,24.50
2022-08-22T10:55:12.217Z,24.50
2022-08-22T10:58:01.885Z,24.30
2022-08-22T11:00:33.720Z,24.20
2022-08-22T11:03:21.473Z,24.20
2022-08-22T11:05:57.175Z,24.20
2022-08-22T11:08:48.650Z,24.20
2022-08-22T11:11:40.659Z,24.20
2022-08-22T11:14:25.807Z,24.20
2022-08-22T11:16:58.823Z,24.30
2022-08-22T11:19:55.385Z,24.30
2022-08-22T11:22:25.627Z,24.30
2022-08-22T11:30:08.365Z,24.40
2022-08-22T11:32:37.749Z,24.40
2022-08-22T11:35:25.795Z,24.40
2022-08-22T11:38:18.783Z,24.40
2022-08-22T11:41:18.307Z,24.30
2022-08-22T11:43:58.925Z,24.30
2022-08-22T11:46:40.763Z,24.20
2022-08-22T11:49:26.873Z,24.20
2022-08-22T11:52:15.850Z,24.20
2022-08-22T11:55:24.438Z,24.30
2022-08-22T11:57:59.161Z,24.30
2022-08-22T12:00:38.127Z,24.30
2022-08-22T12:03:42.981Z,24.30
2022-08-22T12:06:44.280Z,24.20
2022-08-22T12:09:24.197Z,24.30
2022-08-22T12:12:06.482Z,24.30
2022-08-22T12:14:48.849Z,24.40
2022-08-22T12:17:55.828Z,24.40
2022-08-22T12:20:49.367Z,24.30
2022-08-22T12:23:49.326Z,24.30
2022-08-22T12:26:47.053Z,24.30
2022-08-22T12:29:20.109Z,24.30
2022-08-22T12:32:03.953Z,24.20
2022-08-22T12:34:46.785Z,24.30
2022-08-22T12:37:52.114Z,24.30
2022-08-22T12:40:29.129Z,24.30
2022-08-22T12:43:24.042Z,24.40
2022-08-22T12:46:13.039Z,24.30
2022-08-22T12:48:47.011Z,24.30
2022-08-22T12:51:45.077Z,24.40
2022-08-22T12:54:38.698Z,24.40
2022-08-22T12:57:27.092Z,24.50
2022-08-22T12:59:59.901Z,24.60
2022-08-22T13:02:35.927Z,24.60
2022-08-22T13:05:19.946Z,24.60
2022-08-22T13:08:05.376Z,24.60
2022-08-22T13:10:58.799Z,24.50
2022-08-22T13:13:37.082Z,24.60
2022-08-22T13:16:15.359Z,24.50
2022-08-22T13:19:07.853Z,24.60
2022-08-22T13:21:43.317Z,24.70
2022-08-22T13:24:17.004Z,24.70
2022-08-22T13:26:58.518Z,24.60
2022-08-22T13:29:57.469Z,24.50
2022-08-22T13:32:35.721Z,24.50
2022-08-22T13:35:08.170Z,24.50
2022-08-22T13:37:50.115Z,24.40
2022-08-22T13:40:29.695Z,24.30
2022-08-22T13:43:18.141Z,24.30
2022-08-22T13:45:54.574Z,24.20
2022-08-22T13:48:28.592Z,24.10
2022-08-22T13:51:14.517Z,24.00
2022-08-22T13:54:00.810Z,24.00
2022-08-22T13:56:43.019Z,23.90
2022-08-22T13:59:52.714Z,23.90
2022-08-22T14:02:37.144Z,23.90
2022-08-22T14:05:23.869Z,23.90
2022-08-22T14:07:53.069Z,23.90
2022-08-22T14:10:28.288Z,23.90
2022-08-22T14:12:55.113Z,23.90
2022-08-22T14:15:25.957Z,24.00
2022-08-22T14:18:09.483Z,24.00
2022-08-22T14:20:43.858Z,24.00
2022-08-22T14:23:18.423Z,24.00
2022-08-22T14:25:48.119Z,23.90
2022-08-22T14:28:27.605Z,23.90
2022-08-22T14:31:00.895Z,24.00
2022-08-22T14:33:51.827Z,24.20
2022-08-22T14:36:26.985Z,24.30
2022-08-22T14:39:01.911Z,24.20
2022-08-22T14:41:52.878Z,24.20
2022-08-22T14:44:30.170Z,24.20
2022-08-22T14:47:08.408Z,24.20
2022-08-22T14:50:02.419Z,24.20
2022-08-22T14:52:37.207Z,24.20
2022-08-22T14:55:14.679Z,24.20
2022-08-22T14:58:05.950Z,24.20
2022-08-22T15:00:39.651Z,24.20
2022-08-22T15:03:32.422Z,24.30
2022-08-22T15:06:11.795Z,24.20
2022-08-22T15:08:50.641Z,24.20
2022-08-22T15:11:17.813Z,24.20
2022-08-22T15:13:58.817Z,24.20
2022-08-22T15:16:40.601Z,24.20
2022-08-22T15:19:28.406Z,24.20
2022-08-22T15:22:25.586Z,24.10
2022-08-22T15:25:13.370Z,24.10
2022-08-22T15:28:06.705Z,24.00
2022-08-22T15:30:59.100Z,24.00
2022-08-22T15:33:43.325Z,24.00
2022-08-22T15:36:15.924Z,24.00
2022-08-22T15:38:48.264Z,23.90
2022-08-22T15:41:31.556Z,23.90
2022-08-22T15:44:10.269Z,23.90
2022-08-22T15:47:00.835Z,23.90
2022-08-22T15:49:30.957Z,24.00
2022-08-22T15:52:02.976Z,23.90
2022-08-22T15:54:51.440Z,23.80
2022-08-22T15:57:26.199Z,23.70
2022-08-22T16:00:01.429Z,23.70
2022-08-22T16:02:53.186Z,23.60
2022-08-22T16:05:25.675Z,23.60
2022-08-22T16:07:58.297Z,23.60
2022-08-22T16:10:25.110Z,23.50
2022-08-22T16:13:13.532Z,23.50
2022-08-22T16:15:54.401Z,23.50
2022-08-22T16:18:39.105Z,23.50
2022-08-22T16:21:09.216Z,23.40
2022-08-22T16:23:53.613Z,23.40
2022-08-22T16:26:30.074Z,23.40
2022-08-22T16:29:26.155Z,23.40
2022-08-22T16:31:54.614Z,23.30
2022-08-22T16:34:26.351Z,23.20
2022-08-22T16:37:10.712Z,23.20
2022-08-22T16:40:03.938Z,23.10
2022-08-22T16:42:38.361Z,23.10
2022-08-22T16:45:45.641Z,23.00
2022-08-22T16:48:48.297Z,23.10
2022-08-22T16:51:18.789Z,23.00
2022-08-22T16:54:11.200Z,23.00
2022-08-22T16:57:04.094Z,23.00
2022-08-22T16:59:54.384Z,22.90
2022-08-22T17:02:33.351Z,22.90
2022-08-22T17:05:43.333Z,22.80
2022-08-22T17:08:10.184Z,22.80
2022-08-22T17:11:04.945Z,22.80
2022-08-22T17:13:56.675Z,22.80
2022-08-22T17:16:54.087Z,22.80
2022-08-22T17:19:50.866Z,22.80
2022-08-22T17:22:31.899Z,22.70
2022-08-22T17:25:27.964Z,22.70
2022-08-22T17:28:37.022Z,22.70
2022-08-22T17:31:27.627Z,22.70
2022-08-22T17:34:09.375Z,22.60
2022-08-22T17:36:49.353Z,22.60
2022-08-22T17:39:37.896Z,22.60
2022-08-22T17:42:35.067Z,22.50
2022-08-22T17:45:15.270Z,22.50
2022-08-22T17:48:19.423Z,22.50
2022-08-22T17:50:57.740Z,22.40
2022-08-22T17:53:30.604Z,22.40
2022-08-22T17:56:09.369Z,22.40
2022-08-22T17:58:45.407Z,22.40
2022-08-22T18:01:37.064Z,22.30
2022-08-22T18:04:07.797Z,22.30
2022-08-22T18:06:39.546Z,22.20
2022-08-22T18:09:19.289Z,22.20
2022-08-22T18:11:49.927Z,22.20
2022-08-22T18:14:28.643Z,22.20
2022-08-22T18:16:59.262Z,22.20
2022-08-22T18:19:55.065Z,22.10
2022-08-22T18:22:30.117Z,22.10
2022-08-22T18:25:18.581Z,22.00
2022-08-22T18:28:13.132Z,22.00
2022-08-22T18:31:06.940Z,22.00
2022-08-22T18:33:57.202Z,22.00
2022-08-22T18:36:31.132Z,21.90
2022-08-22T18:39:16.898Z,21.90
2022-08-22T18:41:50.478Z,21.90
2022-08-22T18:51:30.707Z,21.80
2022-08-22T18:54:06.910Z,21.80
2022-08-22T18:56:35.546Z,21.80
2022-08-22T18:59:41.806Z,21.80
2022-08-22T19:02:22.602Z,21.80
2022-08-22T19:05:34.006Z,21.80
2022-08-22T19:08:27.090Z,21.70
2022-08-22T19:10:56.228Z,21.70
2022-08-22T19:13:38.245Z,21.70
2022-08-22T19:16:05.676Z,21.70
2022-08-22T19:18:44.299Z,21.60
2022-08-22T19:22:07.428Z,21.60
2022-08-22T19:25:12.517Z,21.50
2022-08-22T19:28:01.258Z,21.50
2022-08-22T19:30:34.235Z,21.40
2022-08-22T19:33:11.459Z,21.50
2022-08-22T19:35:46.453Z,21.50
2022-08-22T19:38:54.265Z,21.50
2022-08-22T19:41:46.627Z,21.60
2022-08-22T19:44:22.242Z,21.60
2022-08-22T19:47:01.052Z,21.50
2022-08-22T19:49:34.564Z,21.50
2022-08-22T19:52:26.087Z,21.50
2022-08-22T19:55:26.682Z,21.40
2022-08-22T19:57:56.288Z,21.40
2022-08-22T20:00:23.222Z,21.30
2022-08-22T20:03:10.577Z,21.30
2022-08-22T20:05:57.577Z,21.30
2022-08-22T20:09:03.278Z,21.30
2022-08-22T20:11:38.854Z,21.20
2022-08-22T20:14:29.985Z,21.30
2022-08-22T20:17:03.272Z,21.20
2022-08-22T20:20:16.533Z,21.20
2022-08-22T20:22:44.082Z,21.30
2022-08-22T20:25:42.442Z,21.30
2022-08-22T20:28:09.565Z,21.20
2022-08-22T20:30:47.003Z,21.20
2022-08-22T20:33:23.447Z,21.20
2022-08-22T20:35:54.326Z,21.20
2022-08-22T20:38:26.687Z,21.20
2022-08-22T20:41:20.815Z,21.20
2022-08-22T20:44:12.291Z,21.10
2022-08-22T20:46:53.286Z,21.10
2022-08-22T20:49:28.760Z,21.10
2022-08-22T20:51:57.584Z,21.10
2022-08-22T20:54:27.949Z,21.00
2022-08-22T20:57:00.770Z,21.00
2022-08-22T20:59:29.900Z,21.00
2022-08-22T21:02:18.844Z,21.00
2022-08-22T21:05:01.820Z,21.00
2022-08-22T21:07:40.882Z,21.00
2022-08-22T21:10:46.172Z,20.90
2022-08-22T21:13:30.061Z,20.90
2022-08-22T21:16:02.551Z,20.90
2022-08-22T21:18:40.836Z,20.90
2022-08-22T21:21:17.823Z,20.90
2022-08-22T21:23:47.913Z,20.90
2022-08-22T21:26:31.885Z,20.90
2022-08-22T21:29:13.854Z,21.00
2022-08-22T21:31:54.088Z,21.00
2022-08-22T21:34:41.616Z,20.90
2022-08-22T21:37:16.727Z,20.90
2022-08-22T21:40:08.335Z,20.90
2022-08-22T21:42:44.885Z,20.90
2022-08-22T21:45:39.304Z,20.80
2022-08-22T21:48:43.739Z,20.80
2022-08-22T21:51:42.954Z,20.80
2022-08-22T21:54:25.062Z,20.80
2022-08-22T21:56:55.006Z,20.80
2022-08-22T21:59:50.867Z,20.80
2022-08-22T22:02:31.486Z,20.80
2022-08-22T22:05:15.886Z,20.80
2022-08-22T22:07:46.276Z,20.90
2022-08-22T22:10:19.846Z,20.90
2022-08-22T22:12:49.586Z,20.80
2022-08-22T22:15:22.827Z,20.80
2022-08-22T22:17:50.294Z,20.80
2022-08-22T22:20:19.151Z,20.80
2022-08-22T22:22:47.281Z,20.80
2022-08-22T22:25:40.609Z,20.80
2022-08-22T22:28:06.454Z,20.70
2022-08-22T22:30:35.630Z,20.70
2022-08-22T22:33:04.597Z,20.70
2022-08-22T22:35:32.475Z,20.70
2022-08-22T22:38:02.144Z,20.70
2022-08-22T22:40:29.211Z,20.70
2022-08-22T22:42:58.672Z,20.70
2022-08-22T22:45:27.714Z,20.70
2022-08-22T22:47:59.553Z,20.70
2022-08-22T22:50:37.949Z,20.70
2022-08-22T22:53:05.151Z,20.70
2022-08-22T22:55:41.648Z,20.70
2022-08-22T22:58:13.525Z,20.70
2022-08-22T23:00:42.978Z,20.70
2022-08-22T23:03:12.664Z,20.80
2022-08-22T23:05:42.015Z,20.70
2022-08-22T23:08:08.858Z,20.80
2022-08-22T23:10:37.937Z,20.80
2022-08-22T23:13:07.297Z,20.80
2022-08-22T23:15:34.094Z,20.80
2022-08-22T23:18:30.488Z,20.80
2022-08-22T23:21:08.716Z,20.70
2022-08-22T23:23:35.582Z,20.80
2022-08-22T23:26:04.818Z,20.80
2022-08-22T23:28:31.679Z,20.70
2022-08-22T23:31:13.181Z,20.80
2022-08-22T23:33:43.588Z,20.80
2022-08-22T23:36:16.723Z,20.80
2022-08-22T23:38:44.959Z,20.80
2022-08-22T23:41:17.591Z,20.80
2022-08-22T23:43:46.638Z,20.80
2022-08-22T23:46:17.429Z,20.80
2022-08-22T23:48:46.693Z,20.70
2022-08-22T23:51:15.581Z,20.70
2022-08-22T23:53:46.728Z,20.70
2022-08-22T23:56:19.437Z,20.70
2022-08-22T23:58:49.006Z,20.70
